Capel Saint Mary, United Kingdom
Current Conditions -  °F | °C
As of 11:50 PM on Wednesday 26 Nov 2014 (Local Time) from EGUW Reporting Station
Moderate Fog Moderate Fog  
Wind Chill: 48°   Ceiling: 100
Heat Index: 48°   Visibility: 0.18mi
Dew Point: 46°   Wind: 1mph
Humidity: 93%   Direction: 100°E
Pressure: 29.74"   Gusts: NA
Location:  52°N, 1.04°E
Report Text: EGUW 262350Z 10001KT 0300 FG OVC001 09/08 Q1007 RED
Loading
Personal Weather Stations






























Interactive Weather Map New forecast layout! Learn more

10-Day Weather Forecast

Advertisements
Track Severe Weather on mobile